createdAt,value
2022-10-04T00:02:20.674Z,10.78
2022-10-04T00:05:24.760Z,10.75
2022-10-04T00:08:26.606Z,10.66
2022-10-04T00:11:31.168Z,10.63
2022-10-04T00:14:35.747Z,10.63
2022-10-04T00:17:38.057Z,10.62
2022-10-04T00:20:53.384Z,10.53
2022-10-04T00:24:08.959Z,10.59
2022-10-04T00:27:19.045Z,10.55
2022-10-04T00:30:23.248Z,10.58
2022-10-04T00:33:42.289Z,10.53
2022-10-04T00:36:45.842Z,10.46
2022-10-04T00:39:57.938Z,10.43
2022-10-04T00:43:06.034Z,10.30
2022-10-04T00:46:13.491Z,10.28
2022-10-04T00:49:17.505Z,10.21
2022-10-04T00:52:22.901Z,10.25
2022-10-04T00:55:25.368Z,10.25
2022-10-04T00:58:31.237Z,10.28
2022-10-04T01:01:35.780Z,10.32
2022-10-04T01:04:43.552Z,10.32
2022-10-04T01:07:47.382Z,10.32
2022-10-04T01:10:52.705Z,10.43
2022-10-04T01:13:56.161Z,10.52
2022-10-04T01:16:58.058Z,10.49
2022-10-04T01:20:00.269Z,10.40
2022-10-04T01:23:03.332Z,10.33
2022-10-04T01:26:06.287Z,10.19
2022-10-04T01:29:14.476Z,10.19
2022-10-04T01:32:17.239Z,9.96
2022-10-04T01:35:20.346Z,9.92
2022-10-04T01:38:22.589Z,10.04
2022-10-04T01:41:29.265Z,10.10
2022-10-04T01:44:31.444Z,10.06
2022-10-04T01:47:37.548Z,10.19
2022-10-04T01:50:43.139Z,10.25
2022-10-04T01:53:49.585Z,10.29
2022-10-04T01:57:07.161Z,10.27
2022-10-04T02:00:10.308Z,10.05
2022-10-04T02:03:26.504Z,10.10
2022-10-04T02:06:30.107Z,10.07
2022-10-04T02:09:34.115Z,10.03
2022-10-04T02:12:38.647Z,9.93
2022-10-04T02:15:40.921Z,9.79
2022-10-04T02:18:44.120Z,10.19
2022-10-04T02:21:47.161Z,10.52
2022-10-04T02:24:49.632Z,10.60
2022-10-04T02:27:53.117Z,10.62
2022-10-04T02:31:13.742Z,10.65
2022-10-04T02:34:17.770Z,10.63
2022-10-04T02:37:22.418Z,10.66
2022-10-04T02:40:28.937Z,10.61
2022-10-04T02:43:43.757Z,10.57
2022-10-04T02:47:04.584Z,10.50
2022-10-04T02:50:09.856Z,10.51
2022-10-04T02:53:18.097Z,10.47
2022-10-04T02:56:22.253Z,10.49
2022-10-04T02:59:24.481Z,10.37
2022-10-04T03:02:30.107Z,10.24
2022-10-04T03:05:32.793Z,10.14
2022-10-04T03:08:36.615Z,10.13
2022-10-04T03:11:40.537Z,9.87
2022-10-04T03:14:43.677Z,9.84
2022-10-04T03:17:46.295Z,9.87
2022-10-04T03:20:48.450Z,9.72
2022-10-04T03:23:52.284Z,9.92
2022-10-04T03:26:58.506Z,10.25
2022-10-04T03:30:01.916Z,10.24
2022-10-04T03:33:05.196Z,10.37
2022-10-04T03:36:07.470Z,10.47
2022-10-04T03:39:11.090Z,10.48
2022-10-04T03:42:18.484Z,10.51
2022-10-04T03:45:21.547Z,10.36
2022-10-04T03:48:38.110Z,10.34
2022-10-04T03:51:44.024Z,10.39
2022-10-04T03:54:47.348Z,10.45
2022-10-04T03:57:49.301Z,10.52
2022-10-04T04:01:14.823Z,10.46
2022-10-04T04:04:37.291Z,10.48
2022-10-04T04:07:41.927Z,10.36
2022-10-04T04:10:50.074Z,10.43
2022-10-04T04:13:56.911Z,10.43
2022-10-04T04:17:17.690Z,10.45
2022-10-04T04:20:28.611Z,10.45
2022-10-04T04:23:33.093Z,10.49
2022-10-04T04:26:43.888Z,10.55
2022-10-04T04:29:50.032Z,10.55
2022-10-04T04:32:54.565Z,10.67
2022-10-04T04:36:03.630Z,10.60
2022-10-04T04:39:28.292Z,10.57
2022-10-04T04:42:32.766Z,10.60
2022-10-04T04:45:36.560Z,10.60
2022-10-04T04:48:39.032Z,10.58
2022-10-04T04:51:41.794Z,10.58
2022-10-04T04:54:47.041Z,10.71
2022-10-04T04:57:50.115Z,10.82
2022-10-04T05:00:58.923Z,10.92
2022-10-04T05:04:01.091Z,11.02
2022-10-04T05:07:05.186Z,11.22
2022-10-04T05:10:21.208Z,11.32
2022-10-04T05:13:26.815Z,11.44
2022-10-04T05:16:41.539Z,11.43
2022-10-04T05:19:43.798Z,11.53
2022-10-04T05:22:47.545Z,11.59
2022-10-04T05:25:50.533Z,11.63
2022-10-04T05:28:52.737Z,11.65
2022-10-04T05:32:07.191Z,11.71
2022-10-04T05:35:20.045Z,11.75
2022-10-04T05:38:41.157Z,11.87
2022-10-04T05:41:52.550Z,11.91
2022-10-04T05:44:56.609Z,11.96
2022-10-04T05:48:00.591Z,11.96
2022-10-04T05:51:13.016Z,12.00
2022-10-04T05:54:18.674Z,12.04
2022-10-04T05:57:31.256Z,12.33
2022-10-04T06:00:46.303Z,13.01
2022-10-04T06:04:04.104Z,16.20
2022-10-04T06:07:11.909Z,18.01
2022-10-04T06:10:33.026Z,16.17
2022-10-04T06:13:51.299Z,14.92
2022-10-04T06:16:53.487Z,14.20
2022-10-04T06:19:55.431Z,13.26
2022-10-04T06:23:01.394Z,13.02
2022-10-04T06:26:10.358Z,13.07
2022-10-04T06:29:18.139Z,13.29
2022-10-04T06:32:38.594Z,13.36
2022-10-04T06:35:57.394Z,13.40
2022-10-04T06:39:18.070Z,13.50
2022-10-04T06:42:38.052Z,13.25
2022-10-04T06:45:39.961Z,13.12
2022-10-04T06:49:01.145Z,13.02
2022-10-04T06:52:09.322Z,13.25
2022-10-04T06:55:21.534Z,13.44
2022-10-04T06:58:41.739Z,13.25
2022-10-04T07:01:58.887Z,13.35
2022-10-04T07:05:30.155Z,13.33
2022-10-04T07:08:39.548Z,13.56
2022-10-04T07:11:49.563Z,13.65
2022-10-04T07:14:54.841Z,13.66
2022-10-04T07:17:58.706Z,13.51
2022-10-04T07:21:08.378Z,13.34
2022-10-04T07:24:12.437Z,13.27
2022-10-04T07:27:21.388Z,13.50
2022-10-04T07:30:23.343Z,13.97
2022-10-04T07:33:27.964Z,13.99
2022-10-04T07:36:39.068Z,14.39
2022-10-04T07:39:44.514Z,14.56
2022-10-04T07:42:54.789Z,14.58
2022-10-04T07:46:06.510Z,14.73
2022-10-04T07:49:15.996Z,15.05
2022-10-04T07:52:24.253Z,15.18
2022-10-04T07:55:26.119Z,14.75
2022-10-04T07:58:41.072Z,14.41
2022-10-04T08:02:01.293Z,14.17
2022-10-04T08:05:23.366Z,14.15
2022-10-04T08:08:40.766Z,14.24
2022-10-04T08:11:46.310Z,14.39
2022-10-04T08:15:07.276Z,14.45
2022-10-04T08:18:09.915Z,14.58
2022-10-04T08:21:17.971Z,14.58
2022-10-04T08:24:27.146Z,14.95
2022-10-04T08:27:28.998Z,14.70
2022-10-04T08:30:39.285Z,14.86
2022-10-04T08:33:59.265Z,15.09
2022-10-04T08:37:03.275Z,15.35
2022-10-04T08:40:24.049Z,15.17
2022-10-04T08:43:37.474Z,14.90
2022-10-04T08:46:53.158Z,14.87
2022-10-04T08:50:24.850Z,14.98
2022-10-04T08:53:29.621Z,15.02
2022-10-04T08:56:51.553Z,15.06
2022-10-04T09:00:13.733Z,15.03
2022-10-04T09:03:22.935Z,15.21
2022-10-04T09:06:40.214Z,15.41
2022-10-04T09:09:44.501Z,15.96
2022-10-04T09:12:54.902Z,16.16
2022-10-04T09:16:09.149Z,16.20
2022-10-04T09:19:39.577Z,16.58
2022-10-04T09:23:15.999Z,16.67
2022-10-04T09:26:28.980Z,16.81
2022-10-04T09:29:37.422Z,16.02
2022-10-04T09:32:42.324Z,16.21
2022-10-04T09:35:50.544Z,16.32
2022-10-04T09:39:29.351Z,16.29
2022-10-04T09:42:42.298Z,16.41
2022-10-04T09:46:03.256Z,16.34
2022-10-04T09:49:13.564Z,16.62
2022-10-04T09:52:34.422Z,16.85
2022-10-04T09:55:42.688Z,16.75
2022-10-04T09:58:48.961Z,16.93
2022-10-04T10:02:00.487Z,17.03
2022-10-04T10:05:18.639Z,16.19
2022-10-04T10:08:27.993Z,15.86
2022-10-04T10:12:03.046Z,15.69
2022-10-04T10:15:19.926Z,15.41
2022-10-04T10:18:31.323Z,15.01
2022-10-04T10:21:39.673Z,15.31
2022-10-04T10:24:57.476Z,15.14
2022-10-04T10:28:07.659Z,15.31
2022-10-04T10:31:21.774Z,15.41
2022-10-04T10:34:59.383Z,15.76
2022-10-04T10:38:32.174Z,15.82
2022-10-04T10:41:52.902Z,16.38
2022-10-04T10:45:09.226Z,17.58
2022-10-04T10:48:11.073Z,17.77
2022-10-04T10:51:18.879Z,18.38
2022-10-04T10:54:40.271Z,18.29
2022-10-04T10:57:48.609Z,17.82
2022-10-04T11:01:10.670Z,18.44
2022-10-04T11:04:31.658Z,19.13
2022-10-04T11:07:51.689Z,19.25
2022-10-04T11:11:03.580Z,19.83
2022-10-04T11:14:11.755Z,21.33
2022-10-04T11:17:27.600Z,22.52
2022-10-04T11:20:38.760Z,22.81
2022-10-04T11:23:59.894Z,25.26
2022-10-04T11:27:28.485Z,26.22
2022-10-04T11:30:57.531Z,24.50
2022-10-04T11:33:59.552Z,23.22
2022-10-04T11:37:21.827Z,21.91
2022-10-04T11:40:26.995Z,20.08
2022-10-04T11:43:54.295Z,19.55
2022-10-04T11:47:07.918Z,18.09
2022-10-04T11:50:10.311Z,18.61
2022-10-04T11:53:19.955Z,21.17
2022-10-04T11:56:29.743Z,23.81
2022-10-04T11:59:39.376Z,25.31
2022-10-04T12:02:50.245Z,23.52
2022-10-04T12:06:03.503Z,22.18
2022-10-04T12:09:11.764Z,22.51
2022-10-04T12:12:38.925Z,21.03
2022-10-04T12:15:52.625Z,22.08
2022-10-04T12:19:07.172Z,22.89
2022-10-04T12:22:28.101Z,23.22
2022-10-04T12:25:46.259Z,24.14
2022-10-04T12:29:11.329Z,23.91
2022-10-04T12:32:19.557Z,24.26
2022-10-04T12:35:40.262Z,25.14
2022-10-04T12:39:15.085Z,25.26
2022-10-04T12:42:37.296Z,25.34
2022-10-04T12:45:46.326Z,24.01
2022-10-04T12:48:57.328Z,23.21
2022-10-04T12:52:05.726Z,23.42
2022-10-04T12:55:19.808Z,23.65
2022-10-04T12:58:30.338Z,22.53
2022-10-04T13:01:42.513Z,21.73
2022-10-04T13:04:51.917Z,23.25
2022-10-04T13:08:03.848Z,22.68
2022-10-04T13:11:06.278Z,21.85
2022-10-04T13:14:16.300Z,20.95
2022-10-04T13:17:36.062Z,20.34
2022-10-04T13:20:57.615Z,20.33
2022-10-04T13:24:04.161Z,20.69
2022-10-04T13:27:15.039Z,21.68
2022-10-04T13:30:23.402Z,22.50
2022-10-04T13:33:40.267Z,22.26
2022-10-04T13:36:48.667Z,21.94
2022-10-04T13:39:50.525Z,22.00
2022-10-04T13:42:59.027Z,21.59
2022-10-04T13:46:07.822Z,22.07
2022-10-04T13:49:28.528Z,22.37
2022-10-04T13:53:07.962Z,21.39
2022-10-04T13:56:42.712Z,19.53
2022-10-04T13:59:44.657Z,18.98
2022-10-04T14:02:55.904Z,18.56
2022-10-04T14:06:17.181Z,18.40
2022-10-04T14:09:22.899Z,18.15
2022-10-04T14:12:28.271Z,17.63
2022-10-04T14:15:33.315Z,17.68
2022-10-04T14:18:50.093Z,17.60
2022-10-04T14:22:11.772Z,17.19
2022-10-04T14:25:34.339Z,17.25
2022-10-04T14:28:38.136Z,17.14
2022-10-04T14:31:55.178Z,16.85
2022-10-04T14:34:58.159Z,16.79
2022-10-04T14:38:23.184Z,16.92
2022-10-04T14:41:39.079Z,16.91
2022-10-04T14:45:01.610Z,16.51
2022-10-04T14:48:24.374Z,16.55
2022-10-04T14:51:30.021Z,16.46
2022-10-04T14:54:52.462Z,16.20
2022-10-04T14:57:54.712Z,15.97
2022-10-04T15:01:17.572Z,15.95
2022-10-04T15:04:40.136Z,15.84
2022-10-04T15:07:46.842Z,15.78
2022-10-04T15:10:51.934Z,15.79
2022-10-04T15:13:55.845Z,15.53
2022-10-04T15:16:59.987Z,15.41
2022-10-04T15:20:10.759Z,15.36
2022-10-04T15:23:13.395Z,15.31
2022-10-04T15:26:18.282Z,15.23
2022-10-04T15:29:25.291Z,15.16
2022-10-04T15:32:45.604Z,15.06
2022-10-04T15:35:54.199Z,15.07
2022-10-04T15:39:03.993Z,14.96
2022-10-04T15:42:06.313Z,14.80
2022-10-04T15:45:17.132Z,14.69
2022-10-04T15:48:34.068Z,14.62
2022-10-04T15:51:54.644Z,14.50
2022-10-04T15:55:02.975Z,14.47
2022-10-04T15:58:09.432Z,14.47
2022-10-04T16:01:21.030Z,14.39
2022-10-04T16:04:42.831Z,14.22
2022-10-04T16:07:54.188Z,14.18
2022-10-04T16:11:06.972Z,14.07
2022-10-04T16:14:15.674Z,14.10
2022-10-04T16:17:53.601Z,14.12
2022-10-04T16:21:12.739Z,13.95
2022-10-04T16:24:18.141Z,13.96
2022-10-04T16:27:26.306Z,13.69
2022-10-04T16:30:29.110Z,13.65
2022-10-04T16:33:43.106Z,13.53
2022-10-04T16:36:59.001Z,13.58
2022-10-04T16:40:02.774Z,13.41
2022-10-04T16:43:25.965Z,13.20
2022-10-04T16:46:36.957Z,13.20
2022-10-04T16:50:08.997Z,13.14
2022-10-04T16:53:26.323Z,13.08
2022-10-04T16:56:31.723Z,13.19
2022-10-04T16:59:36.836Z,13.15
2022-10-04T17:02:56.592Z,13.21
2022-10-04T17:06:11.744Z,13.03
2022-10-04T17:09:36.662Z,13.05
2022-10-04T17:12:57.499Z,13.05
2022-10-04T17:16:02.928Z,13.03
2022-10-04T17:19:39.491Z,13.00
2022-10-04T17:22:47.008Z,12.97
2022-10-04T17:26:07.584Z,13.00
2022-10-04T17:29:26.846Z,12.78
2022-10-04T17:32:31.566Z,12.75
2022-10-04T17:35:52.763Z,12.77
2022-10-04T17:39:17.949Z,12.77
2022-10-04T17:42:23.332Z,12.81
2022-10-04T17:45:25.203Z,12.81
2022-10-04T17:48:47.445Z,12.75
2022-10-04T17:52:09.848Z,12.54
2022-10-04T17:55:17.359Z,12.53
2022-10-04T17:58:23.222Z,12.43
2022-10-04T18:01:28.867Z,12.41
2022-10-04T18:04:34.315Z,12.53
2022-10-04T18:07:43.995Z,12.56
2022-10-04T18:10:50.237Z,12.73
2022-10-04T18:13:59.390Z,12.71
2022-10-04T18:17:25.056Z,12.67
2022-10-04T18:20:30.764Z,12.62
2022-10-04T18:23:39.322Z,12.63
2022-10-04T18:26:56.643Z,12.62
2022-10-04T18:30:01.822Z,12.48
2022-10-04T18:33:13.502Z,12.39
2022-10-04T18:36:31.072Z,12.20
2022-10-04T18:39:44.003Z,12.25
2022-10-04T18:42:52.219Z,12.20
2022-10-04T18:46:00.364Z,12.19
2022-10-04T18:49:21.046Z,12.22
2022-10-04T18:52:29.171Z,12.29
2022-10-04T18:55:46.716Z,12.27
2022-10-04T18:59:15.637Z,12.26
2022-10-04T19:02:34.777Z,12.25
2022-10-04T19:05:36.952Z,12.24
2022-10-04T19:08:55.809Z,12.23
2022-10-04T19:12:04.964Z,11.96
2022-10-04T19:15:13.201Z,11.71
2022-10-04T19:18:33.546Z,11.67
2022-10-04T19:21:38.609Z,11.80
2022-10-04T19:24:43.385Z,11.76
2022-10-04T19:27:48.670Z,11.73
2022-10-04T19:31:05.827Z,11.84
2022-10-04T19:34:11.883Z,11.91
2022-10-04T19:37:30.915Z,11.84
2022-10-04T19:40:44.274Z,11.82
2022-10-04T19:43:58.700Z,11.56
2022-10-04T19:47:19.721Z,11.44
2022-10-04T19:50:24.888Z,11.33
2022-10-04T19:53:35.056Z,11.24
2022-10-04T19:56:43.009Z,11.35
2022-10-04T19:59:48.351Z,11.43
2022-10-04T20:02:50.377Z,11.32
2022-10-04T20:05:54.256Z,11.20
2022-10-04T20:09:02.799Z,11.24
2022-10-04T20:12:05.498Z,11.25
2022-10-04T20:15:16.706Z,11.11
2022-10-04T20:18:34.536Z,10.87
2022-10-04T20:21:36.548Z,10.80
2022-10-04T20:24:41.717Z,10.81
2022-10-04T20:27:46.710Z,10.73
2022-10-04T20:30:51.399Z,10.55
2022-10-04T20:33:53.367Z,10.49
2022-10-04T20:36:55.609Z,10.48
2022-10-04T20:39:57.478Z,10.47
2022-10-04T20:43:24.350Z,10.45
2022-10-04T20:46:27.293Z,10.65
2022-10-04T20:49:29.554Z,10.76
2022-10-04T20:52:33.228Z,10.62
2022-10-04T20:55:36.662Z,10.92
2022-10-04T20:58:40.404Z,11.12
2022-10-04T21:01:45.971Z,11.21
2022-10-04T21:04:51.982Z,11.24
2022-10-04T21:08:32.817Z,11.22
2022-10-04T21:11:44.461Z,11.23
2022-10-04T21:15:01.067Z,11.15
2022-10-04T21:18:04.312Z,11.00
2022-10-04T21:21:07.676Z,10.68
2022-10-04T21:24:28.803Z,10.56
2022-10-04T21:27:38.502Z,10.38
2022-10-04T21:30:40.442Z,10.15
2022-10-04T21:33:43.120Z,9.99
2022-10-04T21:36:45.236Z,9.88
2022-10-04T21:39:47.923Z,9.75
2022-10-04T21:42:49.883Z,9.78
2022-10-04T21:45:52.176Z,9.78
2022-10-04T21:48:54.100Z,9.62
2022-10-04T21:51:56.315Z,9.45
2022-10-04T21:54:58.280Z,9.42
2022-10-04T21:58:00.501Z,9.33
2022-10-04T22:01:02.470Z,9.26
2022-10-04T22:04:04.842Z,9.29
2022-10-04T22:07:06.752Z,9.31
2022-10-04T22:10:09.058Z,9.07
2022-10-04T22:13:11.063Z,8.99
2022-10-04T22:16:13.412Z,9.15
2022-10-04T22:19:15.352Z,8.98
2022-10-04T22:22:17.571Z,8.85
2022-10-04T22:25:20.872Z,8.83
2022-10-04T22:28:25.449Z,8.78
2022-10-04T22:31:28.768Z,8.84
2022-10-04T22:34:31.113Z,8.87
2022-10-04T22:37:33.306Z,8.82
2022-10-04T22:40:36.562Z,8.79
2022-10-04T22:43:38.840Z,8.88
2022-10-04T22:46:42.860Z,8.96
2022-10-04T22:49:46.623Z,8.79
2022-10-04T22:52:48.846Z,8.61
2022-10-04T22:55:51.443Z,8.48
2022-10-04T22:59:00.246Z,8.33
2022-10-04T23:02:06.234Z,8.28
2022-10-04T23:05:16.304Z,8.27
2022-10-04T23:08:18.289Z,8.22
2022-10-04T23:11:20.525Z,8.24
2022-10-04T23:14:22.466Z,8.31
2022-10-04T23:17:25.691Z,8.26
2022-10-04T23:20:28.578Z,8.33
2022-10-04T23:23:31.305Z,8.35
2022-10-04T23:26:38.382Z,8.19
2022-10-04T23:29:40.631Z,8.21
2022-10-04T23:32:44.094Z,8.15
2022-10-04T23:35:47.025Z,8.11
2022-10-04T23:38:51.818Z,7.96
2022-10-04T23:41:55.034Z,8.03
2022-10-04T23:44:57.830Z,7.91
2022-10-04T23:48:01.238Z,7.86
2022-10-04T23:51:03.254Z,7.89
2022-10-04T23:54:05.979Z,7.94
2022-10-04T23:57:12.504Z,7.79
